createdAt,value
2022-08-05T06:32:25.428Z,3.13
2022-08-05T06:40:20.836Z,3.38
2022-08-05T06:45:45.108Z,3.10
2022-08-05T06:48:36.839Z,3.00
2022-08-05T06:53:28.497Z,2.65
2022-08-05T06:55:59.402Z,2.53
2022-08-05T06:58:29.581Z,2.90
2022-08-05T07:01:04.706Z,3.10
2022-08-05T07:03:33.303Z,2.80
2022-08-05T07:06:05.694Z,2.90
2022-08-05T07:08:51.895Z,2.50
2022-08-05T07:11:22.200Z,2.60
2022-08-05T07:14:20.553Z,2.40
2022-08-05T07:18:08.338Z,2.80
2022-08-05T07:20:34.080Z,2.78
2022-08-05T07:22:37.498Z,2.60
2022-08-05T07:25:22.111Z,2.90
2022-08-05T07:27:59.466Z,2.90
2022-08-05T07:30:38.393Z,2.75
2022-08-05T07:33:15.996Z,2.35
2022-08-05T07:36:02.437Z,3.10
2022-08-05T07:38:42.666Z,2.83
2022-08-05T07:42:12.976Z,3.00
2022-08-05T07:44:14.331Z,2.38
2022-08-05T07:46:50.315Z,2.63
2022-08-05T07:49:20.571Z,2.50
2022-08-05T07:51:53.092Z,2.90
2022-08-05T07:54:30.903Z,2.50
2022-08-05T07:57:22.718Z,2.40
2022-08-05T07:59:54.147Z,2.50
2022-08-05T08:02:26.725Z,2.50
2022-08-05T08:04:58.932Z,2.25
2022-08-05T08:07:28.339Z,2.30
2022-08-05T08:09:58.914Z,2.00
2022-08-05T08:12:36.872Z,2.33
2022-08-05T08:15:15.735Z,2.20
2022-08-05T08:17:49.826Z,2.45
2022-08-05T09:07:58.065Z,1.80
2022-08-05T09:34:01.107Z,1.90
2022-08-05T09:36:55.129Z,1.40
2022-08-05T09:39:41.814Z,1.10
2022-08-05T09:42:24.254Z,1.30
2022-08-05T09:44:57.503Z,1.20
2022-08-05T09:47:56.321Z,1.17
2022-08-05T09:50:44.573Z,1.20
2022-08-05T09:53:22.861Z,0.90
2022-08-05T09:56:05.042Z,0.90
2022-08-05T09:58:41.755Z,0.80
2022-08-05T10:01:15.267Z,0.90
2022-08-05T10:04:03.233Z,0.93
2022-08-05T10:06:34.330Z,0.80
2022-08-05T10:09:25.035Z,0.80
2022-08-05T10:11:54.881Z,1.02
2022-08-05T10:14:32.163Z,0.80
2022-08-05T10:17:37.188Z,0.80
2022-08-05T10:20:09.917Z,0.88
2022-08-05T10:22:43.024Z,0.80
2022-08-05T10:25:22.651Z,0.70
2022-08-05T10:28:13.937Z,0.70
2022-08-05T10:31:20.685Z,0.75
2022-08-05T10:33:35.158Z,0.75
2022-08-05T10:36:05.080Z,0.75
2022-08-05T10:41:26.060Z,0.85
2022-08-05T10:44:18.683Z,0.60
2022-08-05T10:46:56.389Z,0.47
2022-08-05T10:49:33.406Z,0.50
2022-08-05T10:52:49.762Z,0.70
2022-08-05T10:55:18.528Z,0.50
2022-08-05T10:57:46.427Z,0.40
2022-08-05T11:00:23.181Z,0.52
2022-08-05T11:03:25.464Z,0.43
2022-08-05T11:06:04.182Z,0.50
2022-08-05T11:08:38.092Z,0.60
2022-08-05T11:11:33.173Z,0.43
2022-08-05T11:14:13.234Z,0.60
2022-08-05T11:17:14.062Z,0.60
2022-08-05T11:20:17.608Z,0.52
2022-08-05T11:22:44.643Z,0.50
2022-08-05T11:26:05.039Z,0.55
2022-08-05T11:28:30.789Z,0.52
2022-08-05T11:31:06.323Z,0.50
2022-08-05T11:33:43.858Z,0.50
2022-08-05T11:36:34.342Z,0.73
2022-08-05T11:39:14.751Z,0.65
2022-08-05T11:42:01.334Z,0.82
2022-08-05T11:44:53.962Z,1.08
2022-08-05T11:47:49.494Z,0.90
2022-08-05T11:50:14.615Z,0.75
2022-08-05T11:55:21.004Z,0.95
2022-08-05T11:58:09.499Z,1.15
2022-08-05T12:00:37.975Z,1.08
2022-08-05T12:03:28.818Z,0.80
2022-08-05T12:06:05.833Z,1.23
2022-08-05T12:08:52.001Z,0.90
2022-08-05T12:11:28.162Z,0.90
2022-08-05T12:14:10.395Z,0.90
2022-08-05T12:16:45.458Z,1.13
2022-08-05T12:20:27.779Z,0.82
2022-08-05T12:22:01.909Z,1.15
2022-08-05T12:24:30.039Z,1.55
2022-08-05T12:27:09.728Z,1.17
2022-08-05T12:29:38.858Z,1.03
2022-08-05T12:32:07.620Z,1.40
2022-08-05T12:34:37.844Z,0.93
2022-08-05T12:37:17.526Z,1.00
2022-08-05T12:39:51.688Z,1.10
2022-08-05T12:42:21.266Z,1.50
2022-08-05T12:44:52.174Z,1.10
2022-08-05T12:47:30.640Z,1.00
2022-08-05T12:50:04.561Z,1.20
2022-08-05T12:52:41.933Z,1.20
2022-08-05T12:55:26.615Z,1.00
2022-08-05T12:58:38.971Z,1.10
2022-08-05T13:02:01.962Z,0.95
2022-08-05T13:03:41.810Z,1.10
2022-08-05T13:06:13.671Z,1.00
2022-08-05T13:08:50.884Z,1.25
2022-08-05T13:12:01.294Z,1.63
2022-08-05T13:14:24.503Z,0.85
2022-08-05T13:17:04.874Z,0.70
2022-08-05T13:19:50.990Z,1.15
2022-08-05T13:22:29.684Z,1.20
2022-08-05T13:25:05.079Z,1.38
2022-08-05T13:27:38.173Z,1.30
2022-08-05T13:30:34.733Z,1.20
2022-08-05T13:32:56.427Z,1.40
2022-08-05T13:35:42.917Z,1.20
2022-08-05T13:38:15.750Z,1.17
2022-08-05T13:40:55.383Z,1.40
2022-08-05T13:43:44.046Z,1.10
2022-08-05T13:46:12.540Z,1.02
2022-08-05T13:48:57.169Z,1.00
2022-08-05T13:51:36.582Z,0.98
2022-08-05T13:54:11.829Z,1.20
2022-08-05T13:56:50.356Z,1.20
2022-08-05T13:59:25.127Z,1.20
2022-08-05T14:01:59.122Z,1.60
2022-08-05T14:04:49.899Z,1.13
2022-08-05T14:07:55.668Z,0.98
2022-08-05T14:10:13.920Z,1.73
2022-08-05T14:12:48.798Z,2.05
2022-08-05T14:16:07.635Z,1.98
2022-08-05T14:18:06.733Z,2.20
2022-08-05T14:20:47.069Z,2.22
2022-08-05T14:23:19.203Z,1.88
2022-08-05T14:25:58.805Z,2.03
2022-08-05T14:28:30.591Z,2.20
2022-08-05T14:31:01.406Z,1.73
2022-08-05T14:33:32.592Z,1.65
2022-08-05T14:36:20.482Z,2.00
2022-08-05T14:38:48.877Z,1.70
2022-08-05T14:41:18.563Z,1.30
2022-08-05T14:43:59.654Z,1.50
2022-08-05T14:46:32.768Z,1.40
2022-08-05T14:49:07.592Z,1.40
2022-08-05T14:51:39.029Z,1.30
2022-08-05T14:54:27.079Z,1.20
2022-08-05T14:56:57.576Z,1.50
2022-08-05T14:59:24.713Z,1.42
2022-08-05T15:01:51.828Z,1.40
2022-08-05T15:04:22.668Z,1.30
2022-08-05T15:06:52.972Z,1.23
2022-08-05T15:09:52.815Z,1.35
2022-08-05T15:12:11.630Z,1.48
2022-08-05T15:14:49.398Z,1.63
2022-08-05T15:17:46.788Z,1.50
2022-08-05T15:20:18.711Z,1.40
2022-08-05T15:22:54.293Z,1.38
2022-08-05T15:25:41.255Z,1.30
2022-08-05T15:28:14.248Z,1.13
2022-08-05T15:30:46.414Z,1.20
2022-08-05T15:34:05.657Z,1.40
2022-08-05T15:36:16.659Z,1.30
2022-08-05T15:38:47.593Z,1.20
2022-08-05T15:41:23.979Z,1.35
2022-08-05T15:43:55.049Z,1.45
2022-08-05T15:46:24.015Z,1.35
2022-08-05T15:48:54.711Z,1.23
2022-08-05T15:52:13.080Z,1.45
2022-08-05T15:54:20.770Z,1.27
2022-08-05T15:57:03.293Z,1.10
2022-08-05T15:59:39.520Z,1.52
2022-08-05T16:02:09.513Z,1.50
2022-08-05T16:04:55.314Z,1.60
2022-08-05T16:07:22.906Z,1.58
2022-08-05T16:09:52.422Z,1.70
2022-08-05T16:12:23.474Z,1.80
2022-08-05T16:14:50.564Z,2.30
2022-08-05T16:17:17.947Z,2.22
2022-08-05T16:20:04.584Z,2.05
2022-08-05T16:22:33.858Z,1.80
2022-08-05T16:25:08.029Z,1.90
2022-08-05T16:27:59.626Z,2.10
2022-08-05T16:30:28.711Z,1.73
2022-08-05T16:32:58.445Z,1.80
2022-08-05T16:35:27.935Z,1.90
2022-08-05T16:38:03.293Z,2.00
2022-08-05T16:40:52.088Z,1.92
2022-08-05T16:43:26.405Z,2.03
2022-08-05T16:46:03.478Z,2.35
2022-08-05T16:48:38.572Z,2.17
2022-08-05T16:51:09.984Z,2.25
2022-08-05T16:54:03.914Z,2.03
2022-08-05T16:56:29.908Z,2.67
2022-08-05T16:58:57.670Z,2.20
2022-08-05T17:01:24.794Z,1.92
2022-08-05T17:03:52.245Z,2.45
2022-08-05T17:06:24.591Z,2.80
2022-08-05T17:08:54.735Z,2.25
2022-08-05T17:11:23.459Z,2.40
2022-08-05T17:13:54.713Z,2.33
2022-08-05T17:16:36.244Z,2.80
2022-08-05T17:19:09.865Z,2.58
2022-08-05T17:21:43.032Z,2.50
2022-08-05T17:24:35.313Z,2.10
2022-08-05T17:27:05.361Z,2.30
2022-08-05T17:29:39.855Z,2.10
2022-08-05T17:32:17.343Z,2.38
2022-08-05T17:34:50.703Z,2.20
2022-08-05T17:37:40.020Z,1.90
2022-08-05T17:40:13.000Z,2.10
2022-08-05T17:42:41.428Z,2.10
2022-08-05T17:45:24.811Z,2.10
2022-08-05T17:47:55.513Z,2.00
2022-08-05T17:50:30.505Z,1.90
2022-08-05T17:53:08.324Z,1.70
2022-08-05T17:55:40.016Z,2.10
2022-08-05T17:58:09.366Z,1.60
2022-08-05T18:00:45.375Z,1.70
2022-08-05T18:03:55.973Z,1.60
2022-08-05T18:08:44.603Z,2.08
2022-08-05T18:11:23.166Z,1.42
2022-08-05T18:13:54.757Z,1.47
2022-08-05T18:18:52.320Z,1.60
2022-08-05T18:21:23.055Z,1.60
2022-08-05T18:23:53.761Z,1.50
2022-08-05T18:26:27.837Z,1.30
2022-08-05T18:28:59.546Z,1.58
2022-08-05T18:31:33.941Z,1.38
2022-08-05T18:34:03.530Z,1.52
2022-08-05T18:36:35.418Z,1.40
2022-08-05T18:39:22.334Z,1.40
2022-08-05T18:42:06.310Z,1.70
2022-08-05T18:47:22.875Z,1.50
2022-08-05T18:50:15.765Z,1.42
2022-08-05T18:52:51.113Z,1.60
2022-08-05T18:55:23.892Z,1.52
2022-08-05T18:57:53.437Z,1.70
2022-08-05T19:00:29.044Z,1.77
2022-08-05T19:02:57.663Z,1.70
2022-08-05T19:06:11.364Z,2.00
2022-08-05T19:08:18.799Z,1.90
2022-08-05T19:10:49.461Z,1.63
2022-08-05T19:13:20.400Z,1.40
2022-08-05T19:15:59.246Z,1.70
2022-08-05T19:18:30.358Z,1.75
2022-08-05T19:20:59.544Z,2.20
2022-08-05T19:24:05.376Z,1.85
2022-08-05T19:26:24.046Z,1.70
2022-08-05T19:28:55.201Z,1.63
2022-08-05T19:31:24.214Z,1.80
2022-08-05T19:33:56.894Z,1.80
2022-08-05T19:36:30.217Z,2.03
2022-08-05T19:39:01.935Z,1.45
2022-08-05T19:41:58.345Z,1.90
2022-08-05T19:44:19.235Z,2.00
2022-08-05T19:46:50.122Z,2.03
2022-08-05T19:49:18.155Z,1.80
2022-08-05T19:52:04.227Z,1.90
2022-08-05T19:54:36.994Z,2.00
2022-08-05T19:57:06.643Z,1.90
2022-08-05T20:00:00.902Z,2.08
2022-08-05T20:02:30.307Z,1.77
2022-08-05T20:04:59.714Z,2.10
2022-08-05T20:07:46.801Z,2.20
2022-08-05T20:10:17.063Z,2.60
2022-08-05T20:12:48.174Z,2.10
2022-08-05T20:15:23.330Z,2.78
2022-08-05T20:18:10.973Z,2.15
2022-08-05T20:23:40.766Z,2.55
2022-08-05T20:26:16.263Z,2.22
2022-08-05T20:28:48.793Z,2.50
2022-08-05T20:31:21.583Z,2.85
2022-08-05T20:33:50.330Z,2.80
2022-08-05T20:36:20.705Z,3.00
2022-08-05T20:38:53.749Z,2.40
2022-08-05T20:41:27.480Z,2.70
2022-08-05T20:44:18.489Z,3.50
2022-08-05T20:46:48.983Z,3.03
2022-08-05T20:49:24.125Z,3.33
2022-08-05T20:51:54.764Z,3.17
2022-08-05T20:54:42.805Z,3.10
2022-08-05T20:57:41.894Z,3.60
2022-08-05T21:00:20.168Z,3.67
2022-08-05T21:03:01.282Z,3.63
2022-08-05T21:05:48.131Z,3.70
2022-08-05T21:08:41.398Z,3.85
2022-08-05T21:11:51.559Z,3.75
2022-08-05T21:14:05.813Z,4.22
2022-08-05T21:16:34.040Z,4.13
2022-08-05T21:19:03.616Z,4.15
2022-08-05T21:21:39.750Z,4.32
2022-08-05T21:24:20.132Z,4.57
2022-08-05T21:26:53.699Z,4.22
2022-08-05T21:29:26.641Z,4.45
2022-08-05T21:32:00.151Z,4.72
2022-08-05T21:34:31.689Z,5.00
2022-08-05T21:37:00.344Z,4.82
2022-08-05T21:39:28.206Z,4.85
2022-08-05T21:42:02.160Z,4.30
2022-08-05T21:44:31.619Z,4.20
2022-08-05T21:46:59.324Z,4.85
2022-08-05T21:50:00.007Z,4.90
2022-08-05T21:52:21.846Z,4.80
2022-08-05T21:55:06.279Z,4.97
2022-08-05T21:57:42.722Z,4.85
2022-08-05T22:00:13.175Z,4.18
2022-08-05T22:02:42.728Z,4.22
2022-08-05T22:05:13.618Z,4.60
2022-08-05T22:10:29.388Z,4.47
2022-08-05T22:12:59.228Z,4.38
2022-08-05T22:16:01.241Z,4.45
2022-08-05T22:18:27.018Z,4.28
2022-08-05T22:20:54.420Z,4.10
2022-08-05T22:24:03.272Z,4.68
2022-08-05T22:26:49.752Z,3.72
2022-08-05T22:29:18.865Z,4.25
2022-08-05T22:31:59.438Z,4.20
2022-08-05T22:34:28.798Z,4.78
2022-08-05T22:37:00.166Z,4.68
2022-08-05T22:39:32.906Z,4.72
2022-08-05T22:42:12.149Z,4.60
2022-08-05T22:44:48.189Z,4.70
2022-08-05T22:47:29.795Z,5.03
2022-08-05T22:50:19.346Z,4.43
2022-08-05T22:52:52.982Z,4.88
2022-08-05T22:55:21.177Z,4.78
2022-08-05T22:57:50.395Z,5.22
2022-08-05T23:00:20.895Z,4.57
2022-08-05T23:02:52.112Z,5.22
2022-08-05T23:05:23.239Z,5.10
2022-08-05T23:07:51.774Z,5.32
2022-08-05T23:10:23.552Z,5.03
2022-08-05T23:12:54.603Z,5.10
2022-08-05T23:15:29.283Z,5.07
2022-08-05T23:18:02.018Z,4.97
2022-08-05T23:20:37.362Z,4.78
2022-08-05T23:23:08.956Z,5.10
2022-08-05T23:25:54.787Z,5.07
2022-08-05T23:28:28.841Z,4.97
2022-08-05T23:30:56.569Z,5.72
2022-08-05T23:34:05.690Z,5.05
2022-08-05T23:36:40.244Z,5.13
2022-08-05T23:39:16.595Z,5.60
2022-08-05T23:41:48.650Z,5.13
2022-08-05T23:44:36.321Z,5.32
2022-08-05T23:47:15.630Z,5.30
2022-08-05T23:49:46.873Z,5.18
2022-08-05T23:52:35.786Z,5.63
2022-08-05T23:55:09.008Z,4.78
2022-08-05T23:57:39.099Z,5.10
